createdAt,value
2022-11-09T00:00:45.931Z,13.50
2022-11-09T00:03:12.797Z,13.50
2022-11-09T00:05:39.884Z,13.50
2022-11-09T00:08:11.543Z,13.50
2022-11-09T00:10:39.009Z,13.50
2022-11-09T00:13:06.361Z,13.50
2022-11-09T00:15:33.316Z,13.50
2022-11-09T00:18:03.360Z,13.50
2022-11-09T00:20:30.737Z,13.40
2022-11-09T00:22:58.649Z,13.40
2022-11-09T00:25:25.499Z,13.40
2022-11-09T00:27:53.496Z,13.40
2022-11-09T00:30:20.398Z,13.50
2022-11-09T00:32:48.157Z,13.40
2022-11-09T00:35:15.161Z,13.50
2022-11-09T00:37:42.444Z,13.40
2022-11-09T00:40:10.382Z,13.40
2022-11-09T00:42:37.290Z,13.40
2022-11-09T00:45:04.540Z,13.40
2022-11-09T00:47:31.417Z,13.40
2022-11-09T00:49:58.401Z,13.40
2022-11-09T00:52:25.251Z,13.40
2022-11-09T00:54:52.108Z,13.40
2022-11-09T00:57:19.056Z,13.40
2022-11-09T00:59:45.975Z,13.40
2022-11-09T01:02:12.843Z,13.40
2022-11-09T01:04:39.926Z,13.40
2022-11-09T01:07:09.864Z,13.40
2022-11-09T01:09:36.839Z,13.40
2022-11-09T01:12:03.856Z,13.50
2022-11-09T01:14:30.731Z,13.50
2022-11-09T01:16:57.641Z,13.50
2022-11-09T01:19:24.562Z,13.50
2022-11-09T01:21:53.514Z,13.50
2022-11-09T01:24:20.364Z,13.50
2022-11-09T01:26:47.271Z,13.50
2022-11-09T01:29:14.115Z,13.50
2022-11-09T01:31:41.942Z,13.50
2022-11-09T01:34:08.946Z,13.50
2022-11-09T01:36:35.825Z,13.50
2022-11-09T01:39:02.698Z,13.50
2022-11-09T01:41:29.686Z,13.40
2022-11-09T01:44:05.422Z,13.40
2022-11-09T01:46:38.066Z,13.40
2022-11-09T01:49:30.524Z,13.30
2022-11-09T01:52:09.318Z,13.30
2022-11-09T01:54:42.177Z,13.30
2022-11-09T01:57:35.250Z,13.30
2022-11-09T02:00:08.618Z,13.20
2022-11-09T02:02:37.759Z,13.20
2022-11-09T02:05:09.062Z,13.20
2022-11-09T02:07:37.792Z,13.20
2022-11-09T02:10:10.525Z,13.10
2022-11-09T02:12:37.488Z,13.10
2022-11-09T02:15:08.938Z,13.10
2022-11-09T02:17:36.827Z,13.10
2022-11-09T02:20:16.944Z,13.10
2022-11-09T02:22:44.133Z,13.10
2022-11-09T02:25:12.998Z,13.10
2022-11-09T02:27:40.453Z,13.00
2022-11-09T02:30:07.997Z,13.00
2022-11-09T02:32:34.934Z,13.00
2022-11-09T02:35:02.039Z,13.00
2022-11-09T02:37:31.638Z,13.00
2022-11-09T02:40:00.575Z,13.00
2022-11-09T02:42:27.487Z,13.00
2022-11-09T02:44:59.726Z,13.00
2022-11-09T02:47:27.012Z,12.90
2022-11-09T02:49:53.906Z,12.90
2022-11-09T02:52:20.825Z,12.90
2022-11-09T02:54:47.672Z,13.00
2022-11-09T02:57:14.578Z,13.00
2022-11-09T02:59:41.491Z,13.00
2022-11-09T03:02:08.467Z,13.00
2022-11-09T03:04:35.325Z,13.00
2022-11-09T03:07:02.260Z,13.00
2022-11-09T03:09:29.173Z,13.00
2022-11-09T03:11:56.033Z,13.00
2022-11-09T03:14:22.916Z,12.90
2022-11-09T03:16:50.953Z,12.90
2022-11-09T03:19:19.045Z,12.80
2022-11-09T03:21:46.404Z,12.80
2022-11-09T03:24:13.346Z,12.80
2022-11-09T03:26:40.203Z,12.80
2022-11-09T03:29:07.144Z,12.80
2022-11-09T03:31:33.998Z,12.70
2022-11-09T03:34:00.836Z,12.80
2022-11-09T03:36:27.939Z,12.70
2022-11-09T03:38:54.788Z,12.80
2022-11-09T03:41:21.608Z,12.80
2022-11-09T03:43:48.581Z,12.80
2022-11-09T03:46:15.438Z,12.80
2022-11-09T03:48:42.277Z,12.80
2022-11-09T03:51:09.155Z,12.80
2022-11-09T03:53:36.031Z,12.80
2022-11-09T03:56:02.932Z,12.70
2022-11-09T03:58:29.806Z,12.70
2022-11-09T04:00:56.666Z,12.70
2022-11-09T04:03:23.606Z,12.60
2022-11-09T04:05:50.548Z,12.60
2022-11-09T04:08:17.394Z,12.50
2022-11-09T04:10:44.316Z,12.50
2022-11-09T04:13:11.236Z,12.50
2022-11-09T04:15:38.102Z,12.50
2022-11-09T04:18:05.003Z,12.40
2022-11-09T04:20:33.958Z,12.40
2022-11-09T04:23:02.899Z,12.40
2022-11-09T04:25:33.166Z,12.40
2022-11-09T04:28:02.557Z,12.30
2022-11-09T04:30:31.255Z,12.30
2022-11-09T04:33:00.342Z,12.40
2022-11-09T04:35:28.760Z,12.40
2022-11-09T04:37:56.345Z,12.40
2022-11-09T04:40:25.078Z,12.40
2022-11-09T04:42:52.455Z,12.40
2022-11-09T04:45:20.513Z,12.40
2022-11-09T04:47:47.587Z,12.40
2022-11-09T04:50:14.710Z,12.30
2022-11-09T04:52:41.643Z,12.40
2022-11-09T04:55:09.318Z,12.30
2022-11-09T04:57:36.239Z,12.30
2022-11-09T05:00:06.595Z,12.30
2022-11-09T05:02:34.492Z,12.30
2022-11-09T05:05:03.667Z,12.30
2022-11-09T05:07:31.601Z,12.20
2022-11-09T05:09:58.444Z,12.20
2022-11-09T05:12:25.313Z,12.20
2022-11-09T05:14:55.492Z,12.20
2022-11-09T05:17:22.338Z,12.20
2022-11-09T05:19:51.434Z,12.20
2022-11-09T05:22:40.418Z,12.10
2022-11-09T05:25:07.530Z,12.10
2022-11-09T05:27:34.372Z,12.10
2022-11-09T05:30:01.289Z,12.20
2022-11-09T05:32:29.141Z,12.10
2022-11-09T05:34:55.990Z,12.10
2022-11-09T05:37:22.978Z,12.10
2022-11-09T05:39:49.841Z,12.10
2022-11-09T05:42:16.676Z,12.10
2022-11-09T05:44:43.579Z,12.10
2022-11-09T05:47:10.402Z,12.10
2022-11-09T05:49:37.305Z,12.10
2022-11-09T05:52:04.391Z,12.10
2022-11-09T05:54:31.239Z,12.10
2022-11-09T05:56:58.101Z,12.10
2022-11-09T05:59:25.955Z,12.10
2022-11-09T06:01:52.847Z,12.10
2022-11-09T06:04:19.759Z,12.10
2022-11-09T06:06:46.782Z,12.10
2022-11-09T06:09:14.771Z,12.10
2022-11-09T06:11:41.764Z,12.00
2022-11-09T06:14:08.638Z,12.00
2022-11-09T06:16:36.605Z,12.00
2022-11-09T06:19:03.457Z,12.00
2022-11-09T06:21:30.329Z,12.00
2022-11-09T06:23:57.208Z,12.00
2022-11-09T06:26:24.049Z,12.00
2022-11-09T06:28:50.935Z,12.00
2022-11-09T06:31:17.874Z,12.00
2022-11-09T06:33:44.766Z,12.00
2022-11-09T06:36:11.995Z,11.90
2022-11-09T06:38:39.202Z,12.00
2022-11-09T06:41:06.428Z,12.00
2022-11-09T06:43:33.431Z,12.00
2022-11-09T06:46:03.858Z,12.00
2022-11-09T06:48:31.810Z,12.00
2022-11-09T06:51:03.124Z,12.00
2022-11-09T06:53:31.204Z,11.90
2022-11-09T06:56:02.881Z,12.00
2022-11-09T06:58:30.370Z,12.00
2022-11-09T07:00:57.365Z,12.00
2022-11-09T07:03:24.998Z,12.00
2022-11-09T07:05:53.385Z,12.00
2022-11-09T07:08:20.270Z,12.00
2022-11-09T07:10:47.486Z,12.00
2022-11-09T07:13:14.635Z,12.00
2022-11-09T07:15:41.523Z,12.10
2022-11-09T07:18:11.937Z,12.10
2022-11-09T07:20:38.826Z,12.10
2022-11-09T07:23:05.674Z,12.20
2022-11-09T07:25:32.795Z,12.20
2022-11-09T07:28:08.580Z,12.30
2022-11-09T07:30:37.084Z,12.30
2022-11-09T07:33:09.633Z,12.40
2022-11-09T07:35:37.400Z,12.50
2022-11-09T07:38:04.445Z,12.80
2022-11-09T07:40:31.549Z,13.10
2022-11-09T07:43:00.766Z,13.40
2022-11-09T07:45:29.321Z,13.70
2022-11-09T07:47:58.215Z,13.80
2022-11-09T07:50:26.998Z,14.00
2022-11-09T07:52:56.523Z,14.10
2022-11-09T07:55:24.589Z,14.40
2022-11-09T07:58:02.848Z,14.80
2022-11-09T08:00:32.621Z,15.20
2022-11-09T08:02:59.868Z,15.70
2022-11-09T08:05:27.190Z,16.10
2022-11-09T08:08:02.947Z,16.40
2022-11-09T08:10:32.490Z,16.30
2022-11-09T08:13:08.477Z,16.20
2022-11-09T08:15:36.445Z,16.20
2022-11-09T08:18:08.305Z,16.70
2022-11-09T08:20:37.215Z,17.30
2022-11-09T08:23:06.537Z,17.50
2022-11-09T08:25:36.877Z,18.10
2022-11-09T08:28:08.505Z,18.90
2022-11-09T08:30:43.493Z,19.50
2022-11-09T08:33:14.214Z,19.80
2022-11-09T08:35:41.433Z,19.80
2022-11-09T08:38:10.618Z,19.80
2022-11-09T08:40:39.558Z,19.90
2022-11-09T08:43:10.372Z,19.90
2022-11-09T08:45:39.003Z,20.20
2022-11-09T08:48:09.044Z,20.00
2022-11-09T08:50:39.037Z,19.20
2022-11-09T08:53:06.689Z,18.00
2022-11-09T08:55:34.385Z,16.90
2022-11-09T08:58:04.854Z,16.20
2022-11-09T09:00:32.070Z,15.90
2022-11-09T09:03:13.332Z,16.50
2022-11-09T09:05:43.283Z,17.50
2022-11-09T09:08:15.387Z,17.30
2022-11-09T09:10:43.083Z,17.20
2022-11-09T09:13:10.387Z,17.30
2022-11-09T09:15:39.522Z,17.10
2022-11-09T09:18:07.482Z,16.50
2022-11-09T09:20:34.443Z,16.00
2022-11-09T09:23:01.785Z,15.40
2022-11-09T09:25:29.227Z,14.90
2022-11-09T09:27:57.628Z,14.60
2022-11-09T09:30:26.924Z,14.20
2022-11-09T09:33:00.698Z,13.90
2022-11-09T09:35:30.837Z,13.60
2022-11-09T09:37:58.629Z,13.40
2022-11-09T09:40:40.730Z,13.20
2022-11-09T09:43:43.834Z,12.90
2022-11-09T09:46:25.012Z,12.60
2022-11-09T09:49:16.884Z,12.20
2022-11-09T09:52:16.880Z,12.00
2022-11-09T09:55:11.512Z,11.80
2022-11-09T09:57:42.081Z,11.80
2022-11-09T10:00:20.781Z,11.80
2022-11-09T10:02:51.730Z,11.80
2022-11-09T10:05:28.287Z,11.80
2022-11-09T10:08:10.979Z,11.80
2022-11-09T10:10:59.827Z,11.90
2022-11-09T10:13:48.626Z,11.90
2022-11-09T10:16:47.726Z,12.00
2022-11-09T10:19:26.438Z,12.00
2022-11-09T10:22:23.243Z,12.00
2022-11-09T10:27:50.009Z,12.20
2022-11-09T10:30:24.676Z,13.10
2022-11-09T10:33:05.641Z,13.80
2022-11-09T10:36:05.303Z,14.20
2022-11-09T10:38:40.463Z,14.20
2022-11-09T10:41:26.223Z,14.60
2022-11-09T10:43:54.203Z,15.60
2022-11-09T10:46:24.792Z,16.50
2022-11-09T10:48:55.782Z,17.30
2022-11-09T10:51:43.499Z,17.90
2022-11-09T10:54:24.780Z,18.50
2022-11-09T10:57:16.837Z,18.70
2022-11-09T10:59:56.554Z,18.90
2022-11-09T11:02:28.055Z,19.30
2022-11-09T11:05:09.695Z,19.40
2022-11-09T11:07:39.666Z,19.60
2022-11-09T11:10:25.919Z,19.60
2022-11-09T11:13:05.857Z,19.60
2022-11-09T11:15:41.257Z,19.80
2022-11-09T11:18:20.907Z,19.80
2022-11-09T11:21:18.398Z,19.70
2022-11-09T11:24:15.937Z,19.60
2022-11-09T11:27:24.584Z,19.50
2022-11-09T11:30:20.124Z,19.10
2022-11-09T11:32:50.345Z,18.80
2022-11-09T11:35:45.637Z,18.10
2022-11-09T11:38:35.001Z,17.60
2022-11-09T11:41:26.587Z,17.20
2022-11-09T11:44:24.762Z,17.00
2022-11-09T11:47:15.838Z,17.00
2022-11-09T11:50:02.505Z,17.00
2022-11-09T11:53:19.551Z,16.90
2022-11-09T11:56:04.706Z,16.50
2022-11-09T11:58:48.208Z,16.30
2022-11-09T12:01:35.178Z,16.30
2022-11-09T12:04:14.032Z,16.60
2022-11-09T12:07:02.554Z,16.70
2022-11-09T12:09:57.530Z,16.70
2022-11-09T12:12:39.428Z,16.80
2022-11-09T12:15:24.138Z,16.80
2022-11-09T12:18:14.971Z,16.90
2022-11-09T12:21:23.554Z,17.10
2022-11-09T12:24:35.203Z,17.10
2022-11-09T12:27:35.299Z,17.10
2022-11-09T12:30:16.423Z,17.20
2022-11-09T12:33:22.178Z,17.00
2022-11-09T12:35:54.329Z,16.80
2022-11-09T12:38:36.649Z,16.70
2022-11-09T12:41:21.962Z,16.60
2022-11-09T12:44:20.914Z,16.60
2022-11-09T12:47:01.082Z,16.50
2022-11-09T12:49:37.447Z,16.40
2022-11-09T12:52:12.139Z,16.30
2022-11-09T12:54:46.600Z,16.10
2022-11-09T12:57:24.167Z,16.20
2022-11-09T12:59:59.278Z,16.10
2022-11-09T13:02:57.123Z,16.00
2022-11-09T13:05:32.074Z,15.90
2022-11-09T13:08:05.645Z,15.90
2022-11-09T13:10:40.248Z,15.80
2022-11-09T13:13:16.023Z,15.70
2022-11-09T13:16:08.978Z,15.60
2022-11-09T13:18:45.466Z,15.60
2022-11-09T13:21:27.342Z,15.50
2022-11-09T13:24:03.840Z,15.60
2022-11-09T13:26:32.069Z,15.80
2022-11-09T13:29:23.351Z,15.80
2022-11-09T13:32:11.411Z,16.00
2022-11-09T13:34:47.523Z,16.20
2022-11-09T13:37:42.419Z,16.30
2022-11-09T13:40:31.099Z,16.30
2022-11-09T13:43:06.619Z,16.30
2022-11-09T13:46:02.771Z,16.30
2022-11-09T13:48:50.199Z,16.30
2022-11-09T13:51:19.832Z,16.40
2022-11-09T13:54:02.882Z,16.40
2022-11-09T13:56:42.551Z,16.50
2022-11-09T13:59:30.114Z,16.50
2022-11-09T14:02:00.927Z,16.50
2022-11-09T14:04:30.082Z,16.50
2022-11-09T14:07:09.800Z,16.40
2022-11-09T14:09:57.601Z,16.40
2022-11-09T14:12:57.959Z,16.30
2022-11-09T14:16:08.030Z,16.30
2022-11-09T14:18:44.239Z,16.30
2022-11-09T14:21:47.488Z,16.30
2022-11-09T14:24:34.561Z,16.30
2022-11-09T14:27:17.771Z,16.30
2022-11-09T14:29:56.869Z,16.20
2022-11-09T14:32:36.530Z,16.00
2022-11-09T14:35:21.676Z,15.90
2022-11-09T14:37:52.389Z,15.90
2022-11-09T14:40:30.906Z,15.90
2022-11-09T14:43:38.566Z,15.90
2022-11-09T14:46:20.868Z,15.80
2022-11-09T14:49:00.231Z,15.70
2022-11-09T14:52:00.550Z,15.60
2022-11-09T14:54:28.671Z,15.60
2022-11-09T14:56:55.862Z,15.50
2022-11-09T14:59:32.655Z,15.50
2022-11-09T15:02:32.085Z,15.40
2022-11-09T15:05:04.291Z,15.30
2022-11-09T15:07:35.488Z,15.30
2022-11-09T15:10:17.834Z,15.30
2022-11-09T15:12:53.611Z,15.20
2022-11-09T15:15:24.683Z,15.20
2022-11-09T15:17:55.087Z,15.20
2022-11-09T15:20:29.535Z,15.20
2022-11-09T15:23:04.451Z,15.20
2022-11-09T15:25:46.747Z,15.30
2022-11-09T15:28:14.611Z,15.30
2022-11-09T15:30:46.207Z,15.30
2022-11-09T15:33:29.855Z,15.20
2022-11-09T15:36:06.798Z,15.20
2022-11-09T15:38:34.647Z,15.10
2022-11-09T15:41:02.215Z,15.00
2022-11-09T15:43:29.526Z,14.90
2022-11-09T15:45:59.078Z,14.90
2022-11-09T15:48:28.591Z,14.80
2022-11-09T15:50:58.827Z,14.70
2022-11-09T15:53:26.305Z,14.60
2022-11-09T15:55:53.404Z,14.50
2022-11-09T15:58:20.727Z,14.50
2022-11-09T16:00:48.070Z,14.30
2022-11-09T16:03:18.824Z,14.30
2022-11-09T16:05:47.905Z,14.20
2022-11-09T16:08:15.775Z,14.10
2022-11-09T16:10:44.453Z,14.10
2022-11-09T16:13:11.909Z,14.00
2022-11-09T16:15:40.026Z,13.90
2022-11-09T16:18:07.278Z,13.90
2022-11-09T16:20:37.354Z,13.80
2022-11-09T16:23:06.409Z,13.90
2022-11-09T16:25:34.367Z,13.90
2022-11-09T16:28:01.274Z,13.80
2022-11-09T16:30:28.277Z,13.70
2022-11-09T16:32:58.338Z,13.70
2022-11-09T16:35:28.016Z,13.60
2022-11-09T16:37:59.774Z,13.50
2022-11-09T16:40:31.808Z,13.50
2022-11-09T16:43:01.976Z,13.40
2022-11-09T16:45:33.600Z,13.40
2022-11-09T16:48:04.847Z,13.30
2022-11-09T16:50:33.803Z,13.20
2022-11-09T16:53:03.825Z,13.20
2022-11-09T16:55:31.003Z,13.20
2022-11-09T16:57:57.907Z,13.10
2022-11-09T17:00:37.440Z,13.10
2022-11-09T17:03:12.227Z,13.10
2022-11-09T17:05:46.577Z,13.00
2022-11-09T17:08:19.830Z,13.00
2022-11-09T17:10:47.423Z,12.90
2022-11-09T17:13:14.557Z,12.90
2022-11-09T17:15:44.905Z,12.90
2022-11-09T17:18:15.278Z,12.80
2022-11-09T17:20:50.903Z,12.90
2022-11-09T17:23:19.952Z,12.90
2022-11-09T17:25:58.795Z,12.80
2022-11-09T17:28:27.012Z,12.80
2022-11-09T17:30:54.852Z,12.80
2022-11-09T17:33:23.161Z,12.70
2022-11-09T17:35:59.948Z,12.70
2022-11-09T17:38:30.519Z,12.70
2022-11-09T17:41:05.304Z,12.70
2022-11-09T17:43:37.565Z,12.60
2022-11-09T17:46:20.143Z,12.60
2022-11-09T17:48:49.970Z,12.60
2022-11-09T17:51:20.477Z,12.60
2022-11-09T17:53:49.474Z,12.60
2022-11-09T17:56:16.601Z,12.60
2022-11-09T17:58:45.653Z,12.60
2022-11-09T18:01:18.655Z,12.50
2022-11-09T18:03:46.170Z,12.60
2022-11-09T18:06:31.259Z,12.50
2022-11-09T18:09:25.787Z,12.50
2022-11-09T18:11:45.118Z,12.50
2022-11-09T18:14:11.957Z,12.50
2022-11-09T18:16:38.949Z,12.50
2022-11-09T18:19:07.929Z,12.40
2022-11-09T18:21:34.828Z,12.40
2022-11-09T18:24:01.812Z,12.40
2022-11-09T18:26:28.918Z,12.40
2022-11-09T18:28:57.006Z,12.30
2022-11-09T18:31:24.534Z,12.30
2022-11-09T18:33:51.805Z,12.30
2022-11-09T18:36:21.108Z,12.30
2022-11-09T18:38:48.521Z,12.20
2022-11-09T18:41:18.681Z,12.20
2022-11-09T18:43:46.316Z,12.20
2022-11-09T18:46:15.617Z,12.20
2022-11-09T18:48:43.204Z,12.20
2022-11-09T18:51:11.209Z,12.20
2022-11-09T18:53:43.247Z,12.10
2022-11-09T18:56:25.021Z,12.10
2022-11-09T18:58:55.316Z,12.10
2022-11-09T19:01:30.079Z,12.10
2022-11-09T19:04:00.488Z,12.10
2022-11-09T19:06:28.418Z,12.10
2022-11-09T19:09:14.836Z,12.10
2022-11-09T19:11:42.729Z,12.00
2022-11-09T19:14:10.674Z,12.00
2022-11-09T19:16:37.750Z,12.00
2022-11-09T19:19:04.599Z,12.00
2022-11-09T19:21:36.991Z,12.00
2022-11-09T19:24:05.685Z,12.00
2022-11-09T19:26:32.604Z,12.00
2022-11-09T19:28:59.573Z,11.90
2022-11-09T19:31:26.949Z,11.90
2022-11-09T19:33:53.952Z,11.90
2022-11-09T19:36:30.063Z,11.90
2022-11-09T19:38:57.885Z,11.90
2022-11-09T19:41:25.641Z,11.90
2022-11-09T19:44:01.315Z,11.90
2022-11-09T19:46:33.892Z,11.90
2022-11-09T19:49:01.369Z,11.80
2022-11-09T19:51:31.879Z,11.80
2022-11-09T19:54:00.429Z,11.80
2022-11-09T19:56:29.847Z,11.80
2022-11-09T19:58:59.715Z,11.80
2022-11-09T20:01:27.607Z,11.80
2022-11-09T20:03:57.039Z,11.80
2022-11-09T20:06:24.585Z,11.80
2022-11-09T20:08:52.342Z,11.80
2022-11-09T20:11:40.832Z,11.80
2022-11-09T20:14:08.905Z,11.80
2022-11-09T20:16:37.093Z,11.70
2022-11-09T20:19:05.243Z,11.70
2022-11-09T20:21:32.590Z,11.70
2022-11-09T20:23:59.546Z,11.80
2022-11-09T20:26:26.592Z,11.80
2022-11-09T20:28:54.486Z,11.80
2022-11-09T20:31:22.233Z,11.70
2022-11-09T20:33:50.149Z,11.80
2022-11-09T20:36:18.833Z,11.80
2022-11-09T20:38:46.758Z,11.80
2022-11-09T20:41:15.241Z,11.70
2022-11-09T20:43:42.616Z,11.80
2022-11-09T20:46:16.561Z,11.80
2022-11-09T20:48:59.585Z,11.80
2022-11-09T20:51:27.744Z,11.80
2022-11-09T20:53:54.935Z,11.80
2022-11-09T20:56:21.982Z,11.70
2022-11-09T20:58:49.707Z,11.80
2022-11-09T21:01:19.706Z,11.80
2022-11-09T21:03:48.004Z,11.80
2022-11-09T21:06:15.385Z,11.70
2022-11-09T21:08:47.210Z,11.70
2022-11-09T21:11:15.119Z,11.70
2022-11-09T21:13:43.955Z,11.70
2022-11-09T21:16:13.393Z,11.70
2022-11-09T21:18:40.940Z,11.70
2022-11-09T21:21:25.134Z,11.70
2022-11-09T21:24:10.672Z,11.60
2022-11-09T21:26:56.155Z,11.70
2022-11-09T21:29:43.333Z,11.70
2022-11-09T21:32:11.737Z,11.60
2022-11-09T21:34:39.188Z,11.60
2022-11-09T21:37:06.779Z,11.60
2022-11-09T21:39:34.098Z,11.60
2022-11-09T21:42:02.014Z,11.50
2022-11-09T21:44:31.245Z,11.50
2022-11-09T21:46:58.807Z,11.50
2022-11-09T21:49:25.768Z,11.50
2022-11-09T21:51:53.311Z,11.50
2022-11-09T21:54:20.895Z,11.40
2022-11-09T21:56:48.883Z,11.40
2022-11-09T21:59:15.762Z,11.40
2022-11-09T22:01:42.750Z,11.40
2022-11-09T22:04:09.751Z,11.40
2022-11-09T22:06:39.032Z,11.40
2022-11-09T22:09:07.590Z,11.40
2022-11-09T22:11:53.022Z,11.40
2022-11-09T22:14:39.423Z,11.30
2022-11-09T22:17:08.733Z,11.30
2022-11-09T22:19:56.854Z,11.30
2022-11-09T22:22:23.796Z,11.20
2022-11-09T22:24:50.720Z,11.20
2022-11-09T22:27:17.625Z,11.20
2022-11-09T22:29:44.506Z,11.20
2022-11-09T22:32:11.360Z,11.20
2022-11-09T22:34:38.335Z,11.20
2022-11-09T22:37:05.176Z,11.20
2022-11-09T22:39:32.059Z,11.20
2022-11-09T22:41:59.004Z,11.20
2022-11-09T22:44:25.908Z,11.10
2022-11-09T22:46:52.762Z,11.20
2022-11-09T22:49:19.803Z,11.20
2022-11-09T22:51:46.625Z,11.20
2022-11-09T22:54:13.736Z,11.20
2022-11-09T22:56:40.656Z,11.20
2022-11-09T22:59:07.829Z,11.20
2022-11-09T23:01:34.746Z,11.20
2022-11-09T23:04:01.881Z,11.20
2022-11-09T23:06:29.244Z,11.20
2022-11-09T23:08:56.250Z,11.20
2022-11-09T23:11:25.189Z,11.20
2022-11-09T23:13:54.150Z,11.20
2022-11-09T23:16:22.642Z,11.10
2022-11-09T23:18:55.860Z,11.10
2022-11-09T23:21:25.751Z,11.10
2022-11-09T23:23:54.924Z,11.10
2022-11-09T23:26:23.222Z,11.10
2022-11-09T23:28:50.272Z,11.10
2022-11-09T23:31:27.970Z,11.10
2022-11-09T23:33:56.742Z,11.10
2022-11-09T23:36:25.518Z,11.00
2022-11-09T23:38:52.798Z,11.00
2022-11-09T23:41:19.964Z,11.00
2022-11-09T23:43:49.600Z,11.00
2022-11-09T23:46:18.181Z,11.00
2022-11-09T23:48:45.417Z,11.00
2022-11-09T23:51:12.437Z,11.00
2022-11-09T23:53:40.409Z,11.00
2022-11-09T23:56:10.178Z,11.00
2022-11-09T23:58:37.570Z,11.00
